Time;durP1;ratioP1;P1;durP2;ratioP2;P2;SDS_P1;SDS_P2;PMS_P1;PMS_P2;Temp;Humidity;BMP_temperature;BMP_pressure;BME280_temperature;BME280_humidity;BME280_pressure;Samples;Min_cycle;Max_cycle;Signal;HPM_P1;HPM_P2
2023/04/29 00:00:00;;;;;;;1.73;1.63;;;;;;;12.00;100.00;99843.19;5013385;28;20268;-78
2023/04/29 00:02:27;;;;;;;3.10;2.80;;;;;;;11.94;100.00;99841.81;5014642;28;20197;-78
2023/04/29 00:04:53;;;;;;;2.80;2.60;;;;;;;11.87;100.00;99850.56;5011685;28;20211;-78
2023/04/29 00:07:18;;;;;;;1.50;1.40;;;;;;;11.85;100.00;99855.53;5013829;28;20227;-78
2023/04/29 00:09:43;;;;;;;2.73;2.40;;;;;;;11.80;100.00;99850.28;5012343;28;20212;-78
2023/04/29 00:12:09;;;;;;;1.33;1.23;;;;;;;11.75;100.00;99845.78;5012088;28;20560;-78
2023/04/29 00:14:35;;;;;;;2.27;2.17;;;;;;;11.72;100.00;99845.66;5012229;28;20188;-78
2023/04/29 00:17:00;;;;;;;5.27;2.47;;;;;;;11.70;100.00;99851.44;5013374;28;20184;-78
2023/04/29 00:19:26;;;;;;;8.60;3.33;;;;;;;11.67;100.00;99857.59;5013452;28;20228;-78
2023/04/29 00:21:53;;;;;;;2.57;2.37;;;;;;;11.63;100.00;99851.19;5012814;28;20623;-77
2023/04/29 00:24:18;;;;;;;1.23;1.23;;;;;;;11.63;100.00;99854.72;5010665;28;20279;-78
2023/04/29 00:26:44;;;;;;;5.60;3.73;;;;;;;11.59;100.00;99848.31;5009348;28;20246;-78
2023/04/29 00:29:09;;;;;;;1.30;1.20;;;;;;;11.54;100.00;99845.75;5013687;28;20199;-78
2023/04/29 00:31:36;;;;;;;3.90;3.37;;;;;;;11.50;100.00;99858.50;5014117;28;20274;-78
2023/04/29 00:34:01;;;;;;;5.47;1.50;;;;;;;11.51;100.00;99851.09;5013788;28;20315;-78
2023/04/29 00:36:27;;;;;;;0.83;0.83;;;;;;;11.48;100.00;99857.25;5014027;28;20207;-78
2023/04/29 00:38:52;;;;;;;0.77;0.77;;;;;;;11.46;100.00;99846.63;5013902;28;20588;-78
2023/04/29 00:41:18;;;;;;;2.07;1.97;;;;;;;11.46;100.00;99849.38;5014329;28;20550;-77
2023/04/29 00:43:43;;;;;;;0.90;0.90;;;;;;;11.45;100.00;99852.44;5013578;28;20234;-78
2023/04/29 00:46:09;;;;;;;1.83;1.83;;;;;;;11.45;100.00;99855.97;5013668;28;20568;-77
2023/04/29 00:48:34;;;;;;;0.77;0.77;;;;;;;11.46;100.00;99859.50;5000760;28;20606;-77
2023/04/29 00:51:00;;;;;;;2.23;2.23;;;;;;;11.46;100.00;99863.06;5011432;28;20205;-77
2023/04/29 00:53:25;;;;;;;0.10;0.10;;;;;;;11.45;100.00;99869.66;5012599;28;20210;-77
2023/04/29 00:55:51;;;;;;;1.00;1.00;;;;;;;11.43;100.00;99861.00;5028833;28;20200;-77
2023/04/29 00:58:17;;;;;;;4.23;3.93;;;;;;;11.39;100.00;99865.50;5013542;28;20203;-77
2023/04/29 01:00:43;;;;;;;2.17;2.07;;;;;;;11.37;100.00;99875.16;5012498;28;20580;-77
2023/04/29 01:03:08;;;;;;;4.80;4.40;;;;;;;11.32;100.00;99876.16;5013492;28;20188;-77
2023/04/29 01:05:34;;;;;;;3.70;2.97;;;;;;;11.25;100.00;99870.41;5012888;28;20184;-77
2023/04/29 01:08:16;;;;;;;2.03;1.93;;;;;;;11.20;100.00;99882.34;5013928;28;20204;-76
2023/04/29 01:10:48;;;;;;;7.97;5.73;;;;;;;11.17;100.00;99888.47;5012585;28;20230;-78
2023/04/29 01:13:20;;;;;;;9.03;7.13;;;;;;;11.14;100.00;99889.13;5014072;28;20212;-78
2023/04/29 01:16:10;;;;;;;10.07;5.30;;;;;;;11.11;100.00;99887.03;5013443;28;20667;-77
2023/04/29 01:18:42;;;;;;;5.27;4.77;;;;;;;11.11;100.00;99883.50;5016690;28;20682;-78
2023/04/29 01:21:08;;;;;;;3.47;3.00;;;;;;;11.08;100.00;99889.63;5015823;28;20232;-78
2023/04/29 01:23:33;;;;;;;3.03;2.90;;;;;;;11.08;100.00;99898.63;5011881;28;20266;-78
2023/04/29 01:25:59;;;;;;;12.93;10.50;;;;;;;11.02;100.00;99898.00;5011652;28;20192;-78
2023/04/29 01:28:50;;;;;;;12.73;10.03;;;;;;;11.01;100.00;99904.63;5013555;28;20188;-78
2023/04/29 01:31:26;;;;;;;8.30;6.50;;;;;;;10.98;100.00;99901.72;5013443;28;20286;-78
2023/04/29 01:33:54;;;;;;;7.27;6.63;;;;;;;10.94;100.00;99900.78;5012514;28;20555;-77
2023/04/29 01:36:46;;;;;;;13.27;8.33;;;;;;;10.90;100.00;99899.81;5012865;28;20184;-78
2023/04/29 01:39:44;;;;;;;7.20;6.50;;;;;;;10.89;100.00;99909.97;5012422;28;20290;-77
2023/04/29 01:42:21;;;;;;;7.40;6.60;;;;;;;10.89;100.00;99903.69;5012193;28;20255;-77
2023/04/29 01:44:48;;;;;;;10.83;4.73;;;;;;;10.88;100.00;99899.34;5011362;28;20187;-78
2023/04/29 01:47:14;;;;;;;8.03;6.77;;;;;;;10.86;100.00;99905.16;5011535;28;20212;-77
2023/04/29 01:49:39;;;;;;;11.50;9.80;;;;;;;10.85;100.00;99914.47;5013088;28;20187;-78
2023/04/29 01:52:06;;;;;;;8.57;7.57;;;;;;;10.85;100.00;99916.38;5012212;28;20208;-77
2023/04/29 01:54:35;;;;;;;9.70;7.63;;;;;;;10.85;100.00;99910.91;5027773;28;20580;-77
2023/04/29 01:57:01;;;;;;;13.17;10.53;;;;;;;10.80;100.00;99909.16;5010856;28;20322;-79
2023/04/29 01:59:26;;;;;;;8.33;7.57;;;;;;;10.78;100.00;99914.16;5012609;28;20212;-76
2023/04/29 02:01:52;;;;;;;16.23;10.97;;;;;;;10.76;100.00;99918.34;5012550;28;20200;-78
2023/04/29 02:04:17;;;;;;;10.93;8.40;;;;;;;10.76;100.00;99913.69;5012036;28;20195;-77
2023/04/29 02:06:43;;;;;;;9.73;8.77;;;;;;;10.75;100.00;99919.47;5012321;28;20192;-78
2023/04/29 02:09:08;;;;;;;8.67;7.67;;;;;;;10.73;100.00;99920.63;5011216;28;20192;-78
2023/04/29 02:11:33;;;;;;;21.50;12.10;;;;;;;10.72;100.00;99929.13;5016905;28;20686;-78
2023/04/29 02:13:59;;;;;;;12.70;10.27;;;;;;;10.72;100.00;99923.69;5017846;28;20251;-77
2023/04/29 02:16:24;;;;;;;9.00;5.70;;;;;;;10.72;100.00;99927.22;5019735;28;20263;-78
2023/04/29 02:18:49;;;;;;;6.73;6.07;;;;;;;10.73;100.00;99936.19;5019455;28;20189;-78
2023/04/29 02:21:15;;;;;;;16.53;9.60;;;;;;;10.72;100.00;99940.88;5019213;28;20207;-78
2023/04/29 02:23:40;;;;;;;11.50;7.53;;;;;;;10.72;100.00;99938.13;5019069;28;20187;-78
2023/04/29 02:26:06;;;;;;;13.97;6.77;;;;;;;10.71;100.00;99936.53;5017890;28;20184;-77
2023/04/29 02:28:33;;;;;;;10.17;7.17;;;;;;;10.72;100.00;99940.06;5018728;28;20669;-78
2023/04/29 02:30:59;;;;;;;11.43;9.80;;;;;;;10.65;100.00;99945.22;5019434;28;20311;-77
2023/04/29 02:33:24;;;;;;;10.17;9.10;;;;;;;10.60;100.00;99948.91;5019889;28;20211;-77
2023/04/29 02:35:49;;;;;;;8.30;7.47;;;;;;;10.56;100.00;99941.69;5024359;28;20545;-77
2023/04/29 02:38:14;;;;;;;8.70;7.83;;;;;;;10.50;100.00;99946.50;5024309;28;20187;-76
2023/04/29 02:40:44;;;;;;;10.63;9.50;;;;;;;10.50;100.00;99949.25;5018876;28;20219;-79
2023/04/29 02:43:10;;;;;;;11.90;10.23;;;;;;;10.46;100.00;99953.75;5017499;28;20188;-78
2023/04/29 02:45:36;;;;;;;7.50;6.90;;;;;;;10.43;100.00;99948.94;5018750;28;20199;-78
2023/04/29 02:48:02;;;;;;;8.10;6.97;;;;;;;10.41;100.00;99952.00;5018992;28;20204;-78
2023/04/29 02:50:27;;;;;;;9.20;7.20;;;;;;;10.40;100.00;99955.81;5034603;28;20187;-78
2023/04/29 02:52:53;;;;;;;14.97;10.20;;;;;;;10.37;100.00;99951.00;5020011;28;20179;-79
2023/04/29 02:55:18;;;;;;;8.37;6.50;;;;;;;10.37;100.00;99955.69;5019331;28;20188;-78
2023/04/29 02:57:44;;;;;;;8.63;7.77;;;;;;;10.33;100.00;99958.25;5020953;28;20661;-79
2023/04/29 03:00:09;;;;;;;16.63;8.87;;;;;;;10.34;100.00;99948.13;5019556;28;20534;-78
2023/04/29 03:02:36;;;;;;;13.87;9.63;;;;;;;10.29;100.00;99957.28;5018657;28;20199;-78
2023/04/29 03:05:01;;;;;;;7.93;6.07;;;;;;;10.27;100.00;99959.56;5036416;28;20207;-78
2023/04/29 03:07:28;;;;;;;10.03;6.13;;;;;;;10.26;100.00;99957.91;5035862;28;20196;-78
2023/04/29 03:09:54;;;;;;;2.53;2.43;;;;;;;10.26;100.00;99960.66;5020764;28;20172;-78
2023/04/29 03:12:20;;;;;;;3.83;3.43;;;;;;;10.27;100.00;99956.00;5018750;28;20200;-78
2023/04/29 03:14:45;;;;;;;5.27;4.77;;;;;;;10.27;100.00;99956.81;5018012;28;20180;-78
2023/04/29 03:17:10;;;;;;;9.90;3.93;;;;;;;10.28;100.00;99952.16;5018658;28;20737;-79
2023/04/29 03:19:36;;;;;;;1.83;1.73;;;;;;;10.28;100.00;99968.53;5019213;28;20180;-79
2023/04/29 03:22:01;;;;;;;2.07;1.97;;;;;;;10.28;100.00;99955.69;5017698;28;20204;-78
2023/04/29 03:24:27;;;;;;;2.27;0.57;;;;;;;10.24;100.00;99959.38;5013754;28;20654;-78
2023/04/29 03:26:52;;;;;;;1.80;0.27;;;;;;;10.27;100.00;99966.91;5014158;28;20232;-79
2023/04/29 03:29:17;;;;;;;0.30;0.30;;;;;;;10.23;100.00;99960.50;5016482;28;20184;-79
2023/04/29 03:31:43;;;;;;;1.83;1.73;;;;;;;10.19;100.00;99959.50;5017180;28;20201;-78
2023/04/29 03:34:09;;;;;;;1.77;1.70;;;;;;;10.18;100.00;99960.63;5017146;28;20188;-78
2023/04/29 03:36:34;;;;;;;5.57;4.97;;;;;;;10.13;100.00;99956.94;5016310;28;20196;-78
2023/04/29 03:38:59;;;;;;;2.47;1.70;;;;;;;10.08;100.00;99957.06;5016000;28;20177;-78
2023/04/29 03:41:25;;;;;;;2.00;1.87;;;;;;;10.08;100.00;99959.00;5014879;28;20599;-79
2023/04/29 03:43:50;;;;;;;2.37;2.17;;;;;;;10.06;100.00;99962.06;5015873;28;20263;-77
2023/04/29 03:46:16;;;;;;;12.67;6.73;;;;;;;9.99;100.00;99966.41;5015686;28;20223;-78
2023/04/29 03:48:41;;;;;;;9.87;5.03;;;;;;;9.97;100.00;99979.53;5016486;28;20188;-78
2023/04/29 03:51:08;;;;;;;2.43;2.10;;;;;;;9.92;100.00;99974.25;5031598;28;20254;-78
2023/04/29 03:53:34;;;;;;;3.23;3.07;;;;;;;9.92;100.00;99975.03;5015260;28;20200;-78
2023/04/29 03:55:59;;;;;;;0.00;0.00;;;;;;;9.93;100.00;99984.03;5015745;28;20885;-78
2023/04/29 03:58:24;;;;;;;3.10;2.90;;;;;;;9.91;100.00;99989.81;5017170;28;20601;-78
2023/04/29 04:00:50;;;;;;;1.90;1.73;;;;;;;9.92;100.00;99990.59;4999538;28;20279;-79
2023/04/29 04:03:15;;;;;;;7.27;6.60;;;;;;;9.89;100.00;99994.78;5014707;28;20180;-78
2023/04/29 04:05:40;;;;;;;6.00;4.53;;;;;;;9.79;100.00;100011.44;5015170;28;20184;-78
2023/04/29 04:08:06;;;;;;;4.67;4.17;;;;;;;9.73;100.00;100007.25;5013955;28;20208;-78
2023/04/29 04:10:31;;;;;;;0.73;0.57;;;;;;;9.69;100.00;100012.56;5015517;28;20321;-78
2023/04/29 04:12:57;;;;;;;1.37;1.37;;;;;;;9.67;100.00;100022.16;5030460;28;20191;-78
2023/04/29 04:15:22;;;;;;;7.87;6.67;;;;;;;9.62;100.00;100025.03;5014891;28;20192;-78
2023/04/29 04:17:48;;;;;;;4.40;3.97;;;;;;;9.62;100.00;100030.47;5015261;28;20173;-78
2023/04/29 04:20:13;;;;;;;6.47;5.87;;;;;;;9.61;100.00;100034.31;5014131;28;20283;-78
2023/04/29 04:22:38;;;;;;;2.60;1.57;;;;;;;9.61;100.00;100047.97;5013718;28;20212;-78
2023/04/29 04:25:04;;;;;;;3.20;3.03;;;;;;;9.58;100.00;100045.88;5014493;28;20199;-78
2023/04/29 04:27:30;;;;;;;5.80;5.40;;;;;;;9.57;100.00;100047.00;5015837;28;20204;-78
2023/04/29 04:29:55;;;;;;;6.77;5.60;;;;;;;9.53;100.00;100060.44;5013492;28;20220;-77
2023/04/29 04:32:22;;;;;;;7.60;7.07;;;;;;;9.51;100.00;100060.75;5029821;28;20204;-77
2023/04/29 04:34:48;;;;;;;4.90;4.43;;;;;;;9.54;100.00;100064.75;5014596;28;20221;-77
2023/04/29 04:37:13;;;;;;;3.20;3.10;;;;;;;9.51;100.00;100070.84;5014756;28;20262;-77
2023/04/29 04:39:38;;;;;;;4.77;4.37;;;;;;;9.48;100.00;100064.09;5014772;28;20190;-78
2023/04/29 04:42:04;;;;;;;6.70;6.20;;;;;;;9.46;100.00;100074.53;5013359;28;20231;-77
2023/04/29 04:44:30;;;;;;;2.70;2.50;;;;;;;9.48;100.00;100082.38;5014565;28;20205;-77
2023/04/29 04:46:55;;;;;;;19.80;10.23;;;;;;;9.45;100.00;100075.66;5014870;28;20608;-77
2023/04/29 04:49:23;;;;;;;1.07;1.07;;;;;;;9.43;100.00;100093.44;5013758;28;20186;-78
2023/04/29 04:51:49;;;;;;;13.73;7.93;;;;;;;9.48;100.00;100088.66;5029731;28;20275;-77
2023/04/29 04:54:14;;;;;;;10.47;9.40;;;;;;;9.44;100.00;100089.59;5014396;28;20251;-77
2023/04/29 04:56:39;;;;;;;7.47;6.83;;;;;;;9.43;100.00;100102.44;5013312;28;20188;-76
2023/04/29 04:59:05;;;;;;;8.47;5.97;;;;;;;9.46;100.00;100099.06;5013717;28;20199;-77
2023/04/29 05:01:30;;;;;;;7.20;5.57;;;;;;;9.50;100.00;100096.50;5014848;28;20232;-78
2023/04/29 05:03:56;;;;;;;3.00;2.73;;;;;;;9.51;100.00;100103.56;5013982;28;20185;-78
2023/04/29 05:06:21;;;;;;;8.17;7.50;;;;;;;9.45;100.00;100115.75;5014205;28;20200;-79
2023/04/29 05:08:47;;;;;;;6.53;6.13;;;;;;;9.41;100.00;100117.50;5014125;28;20191;-77
2023/04/29 05:11:19;;;;;;;21.33;9.50;;;;;;;9.36;100.00;100114.88;5013493;28;20214;-78
2023/04/29 05:13:45;;;;;;;6.70;4.97;;;;;;;9.37;100.00;100128.19;5011732;28;20201;-78
2023/04/29 05:16:10;;;;;;;13.70;10.43;;;;;;;9.32;100.00;100132.97;5012025;28;20204;-79
2023/04/29 05:18:36;;;;;;;9.53;6.63;;;;;;;9.28;100.00;100127.34;5010764;28;20184;-79
2023/04/29 05:21:01;;;;;;;11.97;8.67;;;;;;;9.32;100.00;100128.31;5011776;28;20766;-80
2023/04/29 05:23:26;;;;;;;4.80;4.07;;;;;;;9.31;100.00;100125.91;5012375;28;20208;-79
2023/04/29 05:25:52;;;;;;;14.67;8.77;;;;;;;9.32;100.00;100138.44;5011960;28;20275;-80
2023/04/29 05:28:18;;;;;;;3.57;3.27;;;;;;;9.33;100.00;100135.38;5011703;28;20275;-77
2023/04/29 05:30:43;;;;;;;2.33;2.23;;;;;;;9.33;100.00;100138.13;5011981;28;20235;-79
2023/04/29 05:33:09;;;;;;;4.13;2.07;;;;;;;9.34;100.00;100142.44;5027189;28;20668;-79
2023/04/29 05:35:34;;;;;;;1.93;1.83;;;;;;;9.31;100.00;100153.19;5010651;28;20184;-79
2023/04/29 05:37:59;;;;;;;30.43;17.90;;;;;;;9.31;100.00;100150.44;5011918;28;20169;-79
2023/04/29 05:40:25;;;;;;;1.13;1.13;;;;;;;9.26;100.00;100156.84;5010773;28;20199;-78
2023/04/29 05:42:50;;;;;;;16.13;8.93;;;;;;;9.23;100.00;100157.44;5011988;28;20172;-79
2023/04/29 05:45:16;;;;;;;3.87;2.90;;;;;;;9.20;100.00;100153.41;5010736;28;20181;-79
2023/04/29 05:47:41;;;;;;;7.20;3.70;;;;;;;9.18;100.00;100168.47;5012212;28;20200;-78
2023/04/29 05:50:07;;;;;;;2.43;2.33;;;;;;;9.17;100.00;100169.59;5012246;28;20184;-78
2023/04/29 05:52:32;;;;;;;10.93;7.23;;;;;;;9.17;100.00;100164.13;5010671;28;20812;-79
2023/04/29 05:54:57;;;;;;;3.03;2.93;;;;;;;9.14;100.00;100171.00;5012089;28;20192;-79
2023/04/29 05:57:23;;;;;;;18.10;13.87;;;;;;;9.17;100.00;100178.56;5010109;28;20701;-79
2023/04/29 05:59:48;;;;;;;1.60;1.60;;;;;;;9.10;100.00;100169.19;5002563;28;20185;-79
2023/04/29 06:02:13;;;;;;;14.27;9.37;;;;;;;9.10;100.00;100180.09;5014634;28;20200;-79
2023/04/29 06:04:40;;;;;;;4.57;3.90;;;;;;;9.10;100.00;100188.28;5019582;28;20243;-79
2023/04/29 06:07:07;;;;;;;9.10;5.23;;;;;;;9.05;100.00;100196.56;5030922;28;20211;-79
2023/04/29 06:09:34;;;;;;;4.10;3.70;;;;;;;9.02;100.00;100197.19;5025842;28;20184;-80
2023/04/29 06:12:00;;;;;;;13.63;10.07;;;;;;;9.02;100.00;100200.72;5013204;28;20737;-79
2023/04/29 06:14:25;;;;;;;0.10;0.10;;;;;;;9.04;100.00;100203.13;5012196;28;20534;-79
2023/04/29 06:16:51;;;;;;;3.20;3.00;;;;;;;8.97;100.00;100210.91;5014749;28;20195;-79
2023/04/29 06:19:16;;;;;;;5.27;3.87;;;;;;;8.83;100.00;100208.25;5014290;28;20606;-79
2023/04/29 06:21:41;;;;;;;5.10;4.73;;;;;;;8.75;100.00;100223.38;5012257;28;20219;-79
2023/04/29 06:24:07;;;;;;;7.57;7.07;;;;;;;8.91;100.00;100226.56;5028361;28;20239;-79
2023/04/29 06:26:32;;;;;;;1.73;1.10;;;;;;;8.95;100.00;100233.00;5013543;28;20212;-79
2023/04/29 06:28:57;;;;;;;19.60;7.03;;;;;;;8.91;100.00;100232.03;5014048;28;20646;-79
2023/04/29 06:31:23;;;;;;;7.93;6.47;;;;;;;8.94;100.00;100234.94;5012252;28;20224;-79
2023/04/29 06:33:48;;;;;;;9.60;8.73;;;;;;;8.99;100.00;100230.50;5012293;28;20203;-78
2023/04/29 06:36:13;;;;;;;2.57;2.47;;;;;;;9.03;100.00;100234.22;5012971;28;20196;-79
2023/04/29 06:38:38;;;;;;;18.37;10.57;;;;;;;8.97;100.00;100244.44;5014238;28;20274;-79
2023/04/29 06:41:04;;;;;;;2.30;2.20;;;;;;;9.01;100.00;100247.34;5014185;28;20204;-79
2023/04/29 06:43:29;;;;;;;1.70;1.70;;;;;;;8.99;100.00;100255.03;5015445;28;20184;-81
2023/04/29 06:45:56;;;;;;;2.10;2.03;;;;;;;8.97;100.00;100254.50;5019667;28;20204;-83
2023/04/29 06:48:22;;;;;;;3.30;3.07;;;;;;;9.07;100.00;100262.47;5007416;28;20232;-84
2023/04/29 06:50:57;;;;;;;2.50;2.30;;;;;;;9.10;100.00;100264.56;5010203;28;20205;-80
2023/04/29 06:53:23;;;;;;;10.60;6.53;;;;;;;9.03;100.00;100269.66;4997907;28;20223;-79
2023/04/29 06:55:49;;;;;;;8.80;7.47;;;;;;;8.93;100.00;100279.63;5028352;28;20207;-79
2023/04/29 06:58:15;;;;;;;11.90;7.93;;;;;;;9.00;100.00;100294.78;5014598;28;20181;-79
2023/04/29 07:00:49;;;;;;;8.33;7.10;;;;;;;8.94;100.00;100294.88;5032394;28;20682;-78
2023/04/29 07:03:15;;;;;;;4.93;4.57;;;;;;;8.93;100.00;100303.34;5014884;28;20242;-79
2023/04/29 07:05:41;;;;;;;4.77;4.43;;;;;;;8.93;100.00;100311.53;5016454;28;20547;-79
2023/04/29 07:08:07;;;;;;;5.53;5.00;;;;;;;8.96;100.00;100305.47;5016922;28;20286;-80
2023/04/29 07:10:33;;;;;;;7.80;4.60;;;;;;;8.94;100.00;100316.66;5016944;28;20184;-79
2023/04/29 07:12:59;;;;;;;8.97;7.87;;;;;;;8.90;100.00;100321.13;5015758;28;20184;-78
2023/04/29 07:15:25;;;;;;;7.23;2.03;;;;;;;8.88;100.00;100341.63;5015590;28;20191;-78
2023/04/29 07:17:50;;;;;;;2.83;2.63;;;;;;;8.93;100.00;100336.84;5016695;28;20263;-79
2023/04/29 07:20:16;;;;;;;4.03;3.80;;;;;;;8.99;100.00;100344.94;5016440;28;20223;-79
2023/04/29 07:22:41;;;;;;;1.43;1.43;;;;;;;9.02;100.00;100353.31;5015831;28;20180;-79
2023/04/29 07:25:07;;;;;;;0.20;0.20;;;;;;;9.03;100.00;100356.84;5015744;28;20234;-79
2023/04/29 07:27:34;;;;;;;3.13;2.67;;;;;;;9.01;100.00;100357.16;5016074;28;20200;-79
2023/04/29 07:30:00;;;;;;;0.97;0.97;;;;;;;9.05;100.00;100365.53;5016059;28;20180;-79
2023/04/29 07:32:26;;;;;;;10.00;9.10;;;;;;;9.07;100.00;100372.28;5015662;28;20227;-79
2023/04/29 07:34:51;;;;;;;4.43;4.20;;;;;;;9.07;100.00;100376.94;5015743;28;20542;-79
2023/04/29 07:37:17;;;;;;;0.30;0.30;;;;;;;9.10;100.00;100379.03;5031526;28;20189;-78
2023/04/29 07:39:42;;;;;;;5.33;4.33;;;;;;;9.13;100.00;100375.72;5016063;28;20540;-79
2023/04/29 07:42:07;;;;;;;6.40;2.73;;;;;;;9.23;100.00;100380.97;5014725;28;20675;-79
2023/04/29 07:44:33;;;;;;;5.60;5.30;;;;;;;9.36;100.00;100384.78;5015312;28;20192;-78
2023/04/29 07:46:58;;;;;;;4.17;3.93;;;;;;;9.34;100.00;100382.38;5014005;28;20210;-78
2023/04/29 07:49:24;;;;;;;0.30;0.30;;;;;;;9.50;100.00;100396.47;5016252;28;20184;-78
2023/04/29 07:51:50;;;;;;;1.57;1.50;;;;;;;9.62;100.00;100399.50;5015848;28;20674;-78
2023/04/29 07:54:15;;;;;;;5.07;3.47;;;;;;;9.70;100.00;100400.72;5015423;28;20208;-79
2023/04/29 07:56:41;;;;;;;0.77;0.77;;;;;;;9.52;100.00;100408.69;5015271;28;20238;-79
2023/04/29 07:59:06;;;;;;;2.10;2.00;;;;;;;9.72;100.00;100406.66;5016376;28;20180;-78
2023/04/29 08:01:31;;;;;;;0.57;0.57;;;;;;;9.94;100.00;100406.69;5015582;28;20204;-78
2023/04/29 08:03:57;;;;;;;0.97;0.87;;;;;;;10.10;100.00;100415.34;5013873;28;20184;-78
2023/04/29 08:06:22;;;;;;;1.73;1.57;;;;;;;10.34;100.00;100415.06;5014352;28;20207;-78
2023/04/29 08:08:48;;;;;;;6.87;6.27;;;;;;;10.39;100.00;100417.69;5013779;28;20188;-79
2023/04/29 08:11:20;;;;;;;3.27;3.03;;;;;;;10.37;100.00;100419.91;5013739;28;20200;-79
2023/04/29 08:13:45;;;;;;;0.73;0.73;;;;;;;10.40;100.00;100422.03;5030250;28;20180;-77
2023/04/29 08:16:12;;;;;;;1.80;1.70;;;;;;;10.54;100.00;100427.41;5014301;28;20234;-78
2023/04/29 08:18:37;;;;;;;5.10;2.83;;;;;;;10.62;100.00;100424.75;5014564;28;20549;-77
2023/04/29 08:21:03;;;;;;;1.57;1.47;;;;;;;10.61;100.00;100436.00;5015005;28;20200;-77
2023/04/29 08:23:28;;;;;;;0.00;0.00;;;;;;;10.68;100.00;100437.16;5015371;28;20374;-78
2023/04/29 08:25:54;;;;;;;6.23;5.77;;;;;;;10.63;100.00;100440.03;5004043;28;20184;-78
2023/04/29 08:28:21;;;;;;;2.10;2.00;;;;;;;10.73;100.00;100438.97;5014721;28;20208;-78
2023/04/29 08:30:46;;;;;;;1.47;1.47;;;;;;;10.78;100.00;100446.22;5030141;28;20200;-78
2023/04/29 08:33:13;;;;;;;0.10;0.10;;;;;;;10.93;100.00;100454.84;5014871;28;20250;-78
2023/04/29 08:35:39;;;;;;;0.60;0.60;;;;;;;10.97;100.00;100455.81;5013485;28;20184;-78
2023/04/29 08:38:05;;;;;;;4.73;4.33;;;;;;;10.81;100.00;100457.31;5013549;28;20183;-78
2023/04/29 08:40:40;;;;;;;0.47;0.47;;;;;;;10.76;100.00;100464.84;5002422;28;20184;-77
2023/04/29 08:43:08;;;;;;;0.00;0.00;;;;;;;11.02;100.00;100469.38;5015176;28;20187;-79
2023/04/29 08:45:35;;;;;;;1.63;1.60;;;;;;;11.22;100.00;100473.47;5029659;28;20188;-78
2023/04/29 08:48:02;;;;;;;3.20;2.90;;;;;;;11.41;100.00;100473.22;5014695;28;20201;-79
2023/04/29 08:50:29;;;;;;;0.90;0.90;;;;;;;11.51;100.00;100469.41;5015348;28;20177;-79
2023/04/29 08:52:55;;;;;;;0.40;0.40;;;;;;;11.55;100.00;100464.91;4997900;28;20184;-78
2023/04/29 08:55:20;;;;;;;0.47;0.47;;;;;;;11.71;100.00;100473.47;5014405;28;20184;-78
2023/04/29 08:57:49;;;;;;;4.90;4.53;;;;;;;11.80;100.00;100486.09;5015761;28;20187;-78
2023/04/29 09:00:15;;;;;;;5.40;4.90;;;;;;;11.38;100.00;100481.25;5014022;28;20184;-79
2023/04/29 09:02:46;;;;;;;2.80;2.60;;;;;;;11.51;100.00;100480.34;5014024;28;20283;-79
2023/04/29 09:05:11;;;;;;;1.53;1.17;;;;;;;11.65;100.00;100481.03;5014035;28;20235;-78
2023/04/29 09:07:38;;;;;;;0.77;0.77;;;;;;;11.81;100.00;100492.38;5014473;28;20200;-78
2023/04/29 09:10:04;;;;;;;3.47;3.17;;;;;;;11.71;98.29;100478.94;5013356;28;20185;-79
2023/04/29 09:12:30;;;;;;;0.10;0.10;;;;;;;11.70;96.85;100488.28;5015058;28;20221;-78
2023/04/29 09:14:56;;;;;;;5.93;5.43;;;;;;;11.72;96.60;100495.09;5014700;28;20663;-79
2023/04/29 09:17:47;;;;;;;0.70;0.60;;;;;;;11.78;95.71;100496.53;5014622;28;20650;-78
2023/04/29 09:20:21;;;;;;;1.50;1.40;;;;;;;11.83;95.42;100498.34;5013960;28;20208;-78
2023/04/29 09:22:51;;;;;;;3.93;1.03;;;;;;;11.83;95.49;100495.59;5014346;28;20275;-79
2023/04/29 09:25:17;;;;;;;0.00;0.00;;;;;;;12.00;96.31;100506.59;5012871;28;20891;-78
2023/04/29 09:27:42;;;;;;;4.80;4.40;;;;;;;11.97;95.84;100503.69;5029516;28;20242;-79
2023/04/29 09:30:09;;;;;;;3.17;3.03;;;;;;;12.00;94.96;100509.31;5012340;28;20177;-79
2023/04/29 09:32:35;;;;;;;1.63;1.50;;;;;;;12.03;94.74;100508.72;5008486;28;20223;-78
2023/04/29 09:35:26;;;;;;;3.43;3.13;;;;;;;12.14;94.66;100511.94;5025237;28;20172;-79
2023/04/29 09:37:53;;;;;;;0.50;0.50;;;;;;;12.23;94.03;100511.94;5020713;28;20200;-79
2023/04/29 09:40:29;;;;;;;1.30;1.30;;;;;;;12.29;93.81;100516.13;5023853;28;20288;-78
2023/04/29 09:42:54;;;;;;;0.23;0.23;;;;;;;12.45;93.34;100515.38;5015626;28;20188;-79
2023/04/29 09:45:43;;;;;;;0.90;0.87;;;;;;;12.36;91.22;100500.03;5014135;28;20247;-79
2023/04/29 09:48:10;;;;;;;0.20;0.20;;;;;;;12.55;89.95;100514.22;5030720;28;20214;-79
2023/04/29 09:50:38;;;;;;;3.80;1.77;;;;;;;12.36;88.48;100508.25;5031075;28;20187;-79
2023/04/29 09:53:07;;;;;;;0.00;0.00;;;;;;;12.62;90.13;100517.28;5015036;28;20716;-78
2023/04/29 09:55:34;;;;;;;0.60;0.60;;;;;;;12.86;89.88;100518.72;5013286;28;20202;-79
2023/04/29 09:57:59;;;;;;;2.53;2.33;;;;;;;12.92;89.05;100511.94;5028997;28;20183;-79
2023/04/29 10:00:31;;;;;;;2.60;2.43;;;;;;;12.89;87.60;100513.41;5012817;28;20184;-79
2023/04/29 10:02:58;;;;;;;0.40;0.40;;;;;;;12.84;86.89;100510.81;5015118;28;20172;-80
2023/04/29 10:05:27;;;;;;;6.17;2.90;;;;;;;12.90;86.16;100516.94;5014403;28;20233;-79
2023/04/29 10:07:53;;;;;;;0.17;0.17;;;;;;;12.85;85.09;100511.59;5015539;28;20215;-77
2023/04/29 10:10:21;;;;;;;1.90;1.80;;;;;;;12.81;85.06;100516.94;5016190;28;20176;-80
2023/04/29 10:12:47;;;;;;;2.83;2.63;;;;;;;12.89;85.38;100520.81;5017060;28;20259;-80
2023/04/29 10:15:28;;;;;;;1.13;1.13;;;;;;;12.61;84.71;100510.19;5024006;28;20188;-79
2023/04/29 10:18:15;;;;;;;1.13;1.13;;;;;;;12.86;85.44;100518.72;5019751;28;20211;-79
2023/04/29 10:20:46;;;;;;;1.13;0.90;;;;;;;12.89;85.21;100518.88;5017481;28;20196;-78
2023/04/29 10:23:13;;;;;;;0.13;0.13;;;;;;;12.88;86.45;100535.66;5012433;28;20187;-78
2023/04/29 10:25:39;;;;;;;1.30;1.20;;;;;;;12.72;86.42;100529.84;5028661;28;20191;-78
2023/04/29 10:28:07;;;;;;;0.20;0.20;;;;;;;12.66;87.03;100536.63;5004848;28;20210;-79
2023/04/29 10:30:34;;;;;;;0.80;0.80;;;;;;;12.79;87.47;100541.16;5021236;28;20215;-79
2023/04/29 10:33:01;;;;;;;4.70;4.30;;;;;;;12.90;87.77;100536.94;5032597;28;20188;-78
2023/04/29 10:35:26;;;;;;;0.97;0.97;;;;;;;12.81;86.39;100547.09;5047999;28;20252;-79
2023/04/29 10:37:53;;;;;;;5.17;4.10;;;;;;;12.74;85.86;100544.06;5017357;28;20234;-79
2023/04/29 10:40:19;;;;;;;2.40;2.30;;;;;;;12.71;85.20;100555.66;5016975;28;20184;-78
2023/04/29 10:42:50;;;;;;;3.73;3.43;;;;;;;12.58;85.22;100542.91;5003081;28;20687;-79
2023/04/29 10:45:26;;;;;;;1.50;1.40;;;;;;;12.55;85.35;100549.03;5014208;28;20622;-79
2023/04/29 10:48:00;;;;;;;1.10;1.10;;;;;;;12.71;86.11;100547.44;5016852;28;20204;-79
2023/04/29 10:50:27;;;;;;;0.00;0.00;;;;;;;12.78;86.50;100553.25;5015663;28;20690;-78
2023/04/29 10:52:57;;;;;;;1.17;0.93;;;;;;;12.64;84.79;100545.19;5017220;28;20178;-78
2023/04/29 10:55:23;;;;;;;1.07;1.07;;;;;;;12.63;84.67;100543.56;5016311;28;20256;-78
2023/04/29 10:57:51;;;;;;;2.07;1.97;;;;;;;12.65;84.09;100538.56;5016756;28;20181;-79
2023/04/29 11:00:33;;;;;;;0.93;0.77;;;;;;;12.78;84.96;100555.97;5018014;28;20908;-79
2023/04/29 11:03:04;;;;;;;0.27;0.27;;;;;;;12.67;84.04;100562.91;5016373;28;20188;-79
2023/04/29 11:05:35;;;;;;;0.00;0.00;;;;;;;12.65;83.74;100557.75;5017079;28;20181;-79
2023/04/29 11:08:22;;;;;;;0.00;0.00;;;;;;;12.66;83.57;100555.81;5016965;28;20243;-78
2023/04/29 11:10:51;;;;;;;0.37;0.37;;;;;;;12.71;82.86;100545.50;5017170;28;20752;-78
2023/04/29 11:13:27;;;;;;;1.40;1.30;;;;;;;12.81;81.26;100549.84;5016816;28;20259;-78
2023/04/29 11:16:03;;;;;;;0.87;0.87;;;;;;;13.00;80.86;100541.28;5014917;28;20176;-78
2023/04/29 11:18:28;;;;;;;0.00;0.00;;;;;;;13.11;80.38;100548.03;5016150;28;20172;-78
2023/04/29 11:21:06;;;;;;;0.30;0.30;;;;;;;12.70;79.15;100543.88;5016796;28;20207;-78
2023/04/29 11:23:40;;;;;;;0.40;0.23;;;;;;;12.88;79.18;100550.19;5014729;28;20243;-77